createdAt,value
2022-09-15T00:01:06.243Z,52.50
2022-09-15T00:03:33.135Z,52.90
2022-09-15T00:06:00.003Z,52.70
2022-09-15T00:08:26.887Z,52.70
2022-09-15T00:11:03.816Z,52.80
2022-09-15T00:13:30.616Z,52.60
2022-09-15T00:15:57.408Z,52.40
2022-09-15T00:18:24.610Z,52.80
2022-09-15T00:20:51.541Z,52.60
2022-09-15T00:23:18.323Z,52.80
2022-09-15T00:25:48.116Z,52.50
2022-09-15T00:28:16.575Z,53.30
2022-09-15T00:30:49.734Z,52.70
2022-09-15T00:33:18.265Z,52.70
2022-09-15T00:35:47.739Z,52.40
2022-09-15T00:38:15.590Z,52.90
2022-09-15T00:40:52.455Z,52.60
2022-09-15T00:43:22.429Z,52.50
2022-09-15T00:45:49.175Z,52.70
2022-09-15T00:48:20.751Z,52.60
2022-09-15T00:50:53.249Z,53.00
2022-09-15T00:53:20.784Z,52.80
2022-09-15T00:55:49.646Z,52.70
2022-09-15T00:58:32.784Z,52.60
2022-09-15T01:01:02.013Z,52.50
2022-09-15T01:03:32.589Z,52.60
2022-09-15T01:06:06.207Z,52.70
2022-09-15T01:08:34.779Z,53.00
2022-09-15T01:11:02.694Z,52.60
2022-09-15T01:13:29.893Z,53.00
2022-09-15T01:19:11.411Z,53.00
2022-09-15T01:21:58.864Z,52.80
2022-09-15T01:24:37.781Z,52.80
2022-09-15T01:27:41.143Z,52.90
2022-09-15T01:30:16.409Z,53.30
2022-09-15T01:33:09.497Z,53.50
2022-09-15T01:35:36.155Z,53.40
2022-09-15T01:38:15.424Z,53.40
2022-09-15T01:41:11.971Z,53.50
2022-09-15T01:43:59.477Z,53.50
2022-09-15T01:46:29.379Z,54.00
2022-09-15T01:48:59.470Z,55.00
2022-09-15T01:51:28.410Z,55.10
2022-09-15T01:53:56.966Z,55.90
2022-09-15T01:56:23.795Z,56.60
2022-09-15T01:58:51.440Z,57.50
2022-09-15T02:01:40.694Z,58.00
2022-09-15T02:04:23.072Z,58.00
2022-09-15T02:06:58.255Z,58.60
2022-09-15T02:09:54.714Z,59.30
2022-09-15T02:12:44.256Z,59.20
2022-09-15T02:15:15.046Z,59.50
2022-09-15T02:17:46.080Z,60.60
2022-09-15T02:20:39.050Z,61.10
2022-09-15T02:23:13.308Z,61.00
2022-09-15T02:25:52.742Z,61.80
2022-09-15T02:28:24.031Z,61.80
2022-09-15T02:30:53.514Z,62.70
2022-09-15T02:33:24.222Z,63.10
2022-09-15T02:35:52.478Z,63.40
2022-09-15T02:38:19.343Z,63.50
2022-09-15T02:40:46.857Z,63.90
2022-09-15T02:43:16.645Z,64.40
2022-09-15T02:45:43.898Z,64.50
2022-09-15T02:48:10.696Z,64.70
2022-09-15T02:50:38.630Z,65.00
2022-09-15T02:53:05.710Z,64.90
2022-09-15T02:55:32.788Z,65.40
2022-09-15T02:58:00.186Z,65.60
2022-09-15T03:00:28.604Z,65.70
2022-09-15T03:02:56.145Z,66.10
2022-09-15T03:05:30.361Z,66.20
2022-09-15T03:07:57.454Z,65.90
2022-09-15T03:10:25.788Z,65.90
2022-09-15T03:12:54.159Z,66.30
2022-09-15T03:15:23.480Z,66.70
2022-09-15T03:17:50.939Z,66.50
2022-09-15T03:20:20.326Z,66.50
2022-09-15T03:22:47.881Z,66.80
2022-09-15T03:25:14.701Z,67.00
2022-09-15T03:27:42.489Z,67.10
2022-09-15T03:30:10.158Z,67.30
2022-09-15T03:32:37.229Z,67.30
2022-09-15T03:35:05.184Z,67.60
2022-09-15T03:37:32.022Z,67.60
2022-09-15T03:39:59.203Z,68.10
2022-09-15T03:42:26.054Z,67.90
2022-09-15T03:44:53.088Z,67.90
2022-09-15T03:47:19.815Z,68.10
2022-09-15T03:49:46.523Z,68.00
2022-09-15T03:52:13.374Z,68.50
2022-09-15T03:54:40.539Z,68.10
2022-09-15T03:57:07.374Z,68.30
2022-09-15T03:59:34.118Z,67.90
2022-09-15T04:02:00.906Z,68.20
2022-09-15T04:04:28.116Z,68.10
2022-09-15T04:06:54.829Z,68.30
2022-09-15T04:09:21.575Z,68.30
2022-09-15T04:11:48.530Z,68.30
2022-09-15T04:14:15.681Z,68.30
2022-09-15T04:16:42.592Z,68.10
2022-09-15T04:19:09.450Z,68.40
2022-09-15T04:21:36.267Z,68.40
2022-09-15T04:24:04.900Z,68.60
2022-09-15T04:26:34.131Z,68.70
2022-09-15T04:29:04.536Z,68.70
2022-09-15T04:31:33.174Z,68.80
2022-09-15T04:34:00.290Z,68.70
2022-09-15T04:36:28.614Z,69.00
2022-09-15T04:38:56.770Z,69.00
2022-09-15T04:41:24.410Z,69.20
2022-09-15T04:43:51.529Z,69.10
2022-09-15T04:46:19.024Z,69.50
2022-09-15T04:48:46.494Z,69.10
2022-09-15T04:51:16.420Z,69.60
2022-09-15T04:53:44.792Z,69.50
2022-09-15T04:56:24.096Z,69.20
2022-09-15T04:59:02.416Z,69.10
2022-09-15T05:01:33.771Z,69.70
2022-09-15T05:04:04.034Z,69.40
2022-09-15T05:06:30.938Z,69.50
2022-09-15T05:08:58.337Z,69.90
2022-09-15T05:11:26.039Z,69.70
2022-09-15T05:13:53.068Z,69.30
2022-09-15T05:16:22.576Z,69.70
2022-09-15T05:18:50.667Z,69.60
2022-09-15T05:21:19.640Z,69.70
2022-09-15T05:23:46.652Z,69.50
2022-09-15T05:26:15.865Z,69.50
2022-09-15T05:28:43.150Z,69.40
2022-09-15T05:31:19.753Z,69.70
2022-09-15T05:33:48.181Z,69.60
2022-09-15T05:36:17.315Z,69.20
2022-09-15T05:38:44.736Z,69.70
2022-09-15T05:41:16.988Z,69.40
2022-09-15T05:43:45.158Z,69.60
2022-09-15T05:46:12.825Z,69.90
2022-09-15T05:48:39.704Z,69.60
2022-09-15T05:51:07.028Z,69.50
2022-09-15T05:53:35.916Z,69.80
2022-09-15T05:56:05.582Z,69.40
2022-09-15T05:58:32.992Z,69.40
2022-09-15T06:01:20.053Z,69.60
2022-09-15T06:03:47.882Z,69.20
2022-09-15T06:06:14.916Z,69.70
2022-09-15T06:08:50.031Z,69.60
2022-09-15T06:11:22.505Z,69.40
2022-09-15T06:13:52.654Z,69.30
2022-09-15T06:16:23.981Z,69.40
2022-09-15T06:18:53.121Z,69.10
2022-09-15T06:21:26.277Z,69.20
2022-09-15T06:23:54.903Z,68.90
2022-09-15T06:26:22.625Z,68.30
2022-09-15T06:28:50.720Z,68.30
2022-09-15T06:31:18.009Z,67.90
2022-09-15T06:33:47.252Z,68.00
2022-09-15T06:36:15.819Z,67.30
2022-09-15T06:38:43.490Z,66.90
2022-09-15T06:41:11.648Z,67.10
2022-09-15T06:43:39.208Z,66.40
2022-09-15T06:46:15.480Z,66.10
2022-09-15T06:48:46.347Z,65.90
2022-09-15T06:51:17.285Z,65.90
2022-09-15T06:53:44.246Z,66.10
2022-09-15T06:56:16.616Z,65.50
2022-09-15T06:58:44.395Z,65.00
2022-09-15T07:01:14.264Z,65.20
2022-09-15T07:03:43.696Z,65.30
2022-09-15T07:06:14.834Z,64.80
2022-09-15T07:08:42.204Z,64.60
2022-09-15T07:11:10.397Z,64.40
2022-09-15T07:13:38.114Z,64.40
2022-09-15T07:16:08.786Z,64.80
2022-09-15T07:18:38.626Z,64.20
2022-09-15T07:21:10.761Z,63.90
2022-09-15T07:23:37.901Z,63.70
2022-09-15T07:26:11.626Z,64.00
2022-09-15T07:28:39.453Z,63.60
2022-09-15T07:31:07.408Z,63.00
2022-09-15T07:33:35.254Z,62.80
2022-09-15T07:36:03.064Z,62.60
2022-09-15T07:38:29.890Z,62.10
2022-09-15T07:41:06.486Z,61.80
2022-09-15T07:43:33.512Z,61.30
2022-09-15T07:46:01.968Z,61.10
2022-09-15T07:48:29.476Z,60.60
2022-09-15T07:50:56.431Z,60.40
2022-09-15T07:53:23.298Z,60.00
2022-09-15T07:55:53.705Z,59.50
2022-09-15T07:58:21.859Z,59.50
2022-09-15T08:00:49.412Z,59.10
2022-09-15T08:03:16.723Z,58.70
2022-09-15T08:05:45.793Z,58.70
2022-09-15T08:08:12.974Z,57.10
2022-09-15T08:10:41.396Z,57.10
2022-09-15T08:13:08.782Z,56.70
2022-09-15T08:15:37.514Z,56.30
2022-09-15T08:18:05.255Z,56.00
2022-09-15T08:20:32.614Z,56.10
2022-09-15T08:22:59.684Z,55.70
2022-09-15T08:25:26.649Z,55.40
2022-09-15T08:27:54.533Z,55.40
2022-09-15T08:30:22.261Z,54.90
2022-09-15T08:32:49.571Z,55.40
2022-09-15T08:35:17.662Z,55.00
2022-09-15T08:37:44.373Z,54.70
2022-09-15T08:40:18.972Z,54.40
2022-09-15T08:42:48.490Z,54.30
2022-09-15T08:45:24.471Z,54.30
2022-09-15T08:47:58.684Z,54.10
2022-09-15T08:50:34.016Z,54.40
2022-09-15T08:53:12.889Z,54.20
2022-09-15T08:55:57.019Z,54.10
2022-09-15T08:58:30.191Z,54.10
2022-09-15T09:01:22.041Z,53.80
2022-09-15T09:04:04.362Z,54.20
2022-09-15T09:06:46.083Z,54.00
2022-09-15T09:09:20.034Z,54.50
2022-09-15T09:12:05.466Z,54.20
2022-09-15T09:14:56.843Z,54.20
2022-09-15T09:17:38.695Z,54.10
2022-09-15T09:20:17.383Z,54.20
2022-09-15T09:22:48.485Z,54.40
2022-09-15T09:25:27.159Z,54.30
2022-09-15T09:27:55.521Z,54.20
2022-09-15T09:30:24.381Z,54.00
2022-09-15T09:33:29.398Z,53.70
2022-09-15T09:35:59.839Z,53.60
2022-09-15T09:38:31.370Z,54.20
2022-09-15T09:41:02.115Z,53.70
2022-09-15T09:43:31.299Z,53.80
2022-09-15T09:45:59.301Z,53.50
2022-09-15T09:48:28.769Z,53.60
2022-09-15T09:50:56.200Z,53.70
2022-09-15T09:53:33.450Z,53.50
2022-09-15T09:56:12.603Z,53.70
2022-09-15T09:58:39.547Z,53.50
2022-09-15T10:01:18.673Z,53.60
2022-09-15T10:03:45.807Z,53.50
2022-09-15T10:06:22.281Z,53.30
2022-09-15T10:09:03.681Z,53.40
2022-09-15T10:11:51.526Z,53.40
2022-09-15T10:14:40.071Z,53.60
2022-09-15T10:17:12.437Z,53.50
2022-09-15T10:20:11.519Z,53.70
2022-09-15T10:22:40.531Z,53.80
2022-09-15T10:25:22.261Z,54.80
2022-09-15T10:28:22.062Z,54.20
2022-09-15T10:31:13.544Z,55.50
2022-09-15T10:33:42.664Z,55.70
2022-09-15T10:36:28.227Z,56.20
2022-09-15T10:39:10.476Z,55.90
2022-09-15T10:41:51.979Z,56.20
2022-09-15T10:44:31.972Z,56.60
2022-09-15T10:47:05.958Z,56.00
2022-09-15T10:50:09.052Z,56.50
2022-09-15T10:52:48.009Z,55.30
2022-09-15T10:56:02.010Z,55.30
2022-09-15T10:58:39.893Z,56.20
2022-09-15T11:01:30.181Z,56.40
2022-09-15T11:04:14.984Z,56.90
2022-09-15T11:06:41.780Z,56.90
2022-09-15T11:09:42.984Z,57.10
2022-09-15T11:12:12.720Z,57.30
2022-09-15T11:14:45.469Z,57.10
2022-09-15T11:17:51.712Z,57.60
2022-09-15T11:20:47.108Z,57.10
2022-09-15T11:23:23.517Z,57.60
2022-09-15T11:25:56.972Z,57.90
2022-09-15T11:28:27.568Z,57.80
2022-09-15T11:31:04.046Z,57.70
2022-09-15T11:33:44.717Z,58.10
2022-09-15T11:36:37.454Z,58.00
2022-09-15T11:39:19.515Z,58.00
2022-09-15T11:41:56.280Z,57.70
2022-09-15T11:44:27.748Z,58.30
2022-09-15T11:47:22.375Z,58.20
2022-09-15T11:50:00.365Z,56.90
2022-09-15T11:52:45.743Z,57.10
2022-09-15T11:55:31.767Z,56.90
2022-09-15T11:58:22.304Z,56.50
2022-09-15T12:01:13.720Z,56.10
2022-09-15T12:03:43.259Z,56.10
2022-09-15T12:06:29.055Z,55.90
2022-09-15T12:09:07.523Z,55.90
2022-09-15T12:11:45.162Z,55.80
2022-09-15T12:14:19.974Z,55.60
2022-09-15T12:16:47.158Z,54.80
2022-09-15T12:19:40.600Z,53.40
2022-09-15T12:22:24.100Z,53.10
2022-09-15T12:25:13.371Z,52.50
2022-09-15T12:27:40.332Z,50.10
2022-09-15T12:30:38.454Z,49.10
2022-09-15T12:33:42.987Z,48.60
2022-09-15T12:36:34.721Z,47.90
2022-09-15T12:39:03.402Z,47.10
2022-09-15T12:41:31.283Z,45.90
2022-09-15T12:44:15.297Z,45.70
2022-09-15T12:46:53.743Z,44.50
2022-09-15T12:49:27.670Z,43.90
2022-09-15T12:51:55.280Z,42.70
2022-09-15T12:54:30.914Z,41.90
2022-09-15T12:56:58.407Z,42.00
2022-09-15T12:59:27.043Z,40.70
2022-09-15T13:01:55.670Z,40.20
2022-09-15T13:04:41.201Z,40.00
2022-09-15T13:07:19.924Z,40.00
2022-09-15T13:09:59.079Z,40.10
2022-09-15T13:12:33.747Z,39.80
2022-09-15T13:15:05.354Z,39.40
2022-09-15T13:17:34.249Z,39.10
2022-09-15T13:20:10.707Z,38.50
2022-09-15T13:22:51.774Z,37.50
2022-09-15T13:25:25.491Z,36.50
2022-09-15T13:27:54.926Z,36.90
2022-09-15T13:30:30.423Z,36.90
2022-09-15T13:33:25.228Z,36.90
2022-09-15T13:35:52.182Z,37.30
2022-09-15T13:38:38.013Z,37.60
2022-09-15T13:41:46.193Z,38.30
2022-09-15T13:44:19.310Z,38.90
2022-09-15T13:46:58.568Z,39.30
2022-09-15T13:49:37.524Z,40.40
2022-09-15T13:52:33.019Z,41.30
2022-09-15T13:55:14.792Z,40.80
2022-09-15T14:00:55.134Z,41.60
2022-09-15T14:03:37.324Z,41.90
2022-09-15T14:06:25.014Z,42.40
2022-09-15T14:08:56.286Z,43.00
2022-09-15T14:11:29.726Z,43.60
2022-09-15T14:13:58.011Z,43.90
2022-09-15T14:16:34.025Z,43.70
2022-09-15T14:19:03.890Z,44.20
2022-09-15T14:21:33.448Z,44.60
2022-09-15T14:24:06.325Z,44.70
2022-09-15T14:26:35.683Z,45.80
2022-09-15T14:29:06.846Z,46.10
2022-09-15T14:31:40.290Z,46.00
2022-09-15T14:34:19.667Z,46.10
2022-09-15T14:36:54.106Z,46.40
2022-09-15T14:39:23.486Z,46.30
2022-09-15T14:41:51.115Z,46.60
2022-09-15T14:47:28.662Z,47.10
2022-09-15T14:50:13.863Z,47.30
2022-09-15T14:53:09.744Z,46.70
2022-09-15T14:55:43.509Z,47.00
2022-09-15T14:58:17.162Z,47.40
2022-09-15T15:01:00.018Z,47.20
2022-09-15T15:03:48.485Z,47.00
2022-09-15T15:06:51.426Z,47.20
2022-09-15T15:09:21.534Z,47.30
2022-09-15T15:11:56.905Z,48.10
2022-09-15T15:14:24.058Z,47.80
2022-09-15T15:16:56.956Z,48.30
2022-09-15T15:19:36.891Z,48.30
2022-09-15T15:22:23.736Z,48.20
2022-09-15T15:24:53.345Z,48.30
2022-09-15T15:27:40.513Z,48.70
2022-09-15T15:30:26.753Z,48.30
2022-09-15T15:32:54.858Z,49.10
2022-09-15T15:35:21.872Z,49.00
2022-09-15T15:37:49.698Z,49.30
2022-09-15T15:40:23.134Z,49.20
2022-09-15T15:43:07.980Z,49.40
2022-09-15T15:45:47.152Z,49.60
2022-09-15T15:48:13.974Z,50.10
2022-09-15T15:50:40.738Z,50.30
2022-09-15T15:53:07.634Z,50.50
2022-09-15T15:55:41.997Z,50.60
2022-09-15T15:58:13.234Z,50.60
2022-09-15T16:00:46.117Z,51.10
2022-09-15T16:03:14.367Z,51.00
2022-09-15T16:05:43.648Z,51.40
2022-09-15T16:08:38.095Z,51.50
2022-09-15T16:11:05.276Z,51.10
2022-09-15T16:13:32.079Z,51.80
2022-09-15T16:16:00.905Z,51.80
2022-09-15T16:18:28.804Z,52.10
2022-09-15T16:20:58.156Z,52.40
2022-09-15T16:23:25.155Z,52.50
2022-09-15T16:25:58.798Z,52.40
2022-09-15T16:28:25.815Z,52.50
2022-09-15T16:30:52.624Z,53.00
2022-09-15T16:33:19.394Z,52.80
2022-09-15T16:36:07.129Z,52.30
2022-09-15T16:38:39.716Z,52.70
2022-09-15T16:41:23.524Z,52.10
2022-09-15T16:43:50.476Z,52.20
2022-09-15T16:46:17.890Z,52.20
2022-09-15T16:48:47.289Z,51.10
2022-09-15T16:51:25.263Z,51.20
2022-09-15T16:53:54.315Z,51.00
2022-09-15T16:56:21.338Z,51.10
2022-09-15T16:58:48.225Z,51.50
2022-09-15T17:01:20.557Z,51.60
2022-09-15T17:03:48.326Z,51.70
2022-09-15T17:06:19.831Z,52.30
2022-09-15T17:08:46.751Z,52.50
2022-09-15T17:11:21.275Z,52.50
2022-09-15T17:13:50.800Z,52.50
2022-09-15T17:16:21.642Z,53.10
2022-09-15T17:18:49.096Z,53.10
2022-09-15T17:21:27.020Z,52.70
2022-09-15T17:23:55.037Z,52.50
2022-09-15T17:26:31.074Z,52.80
2022-09-15T17:29:05.566Z,53.00
2022-09-15T17:31:32.451Z,54.20
2022-09-15T17:33:59.667Z,54.50
2022-09-15T17:36:27.254Z,54.50
2022-09-15T17:38:56.983Z,55.30
2022-09-15T17:41:26.155Z,55.50
2022-09-15T17:43:53.171Z,55.80
2022-09-15T17:46:20.195Z,56.00
2022-09-15T17:48:46.978Z,56.00
2022-09-15T17:51:17.077Z,56.30
2022-09-15T17:53:45.192Z,56.50
2022-09-15T17:56:12.347Z,56.70
2022-09-15T17:58:39.606Z,56.90
2022-09-15T18:01:06.587Z,57.10
2022-09-15T18:03:35.460Z,58.00
2022-09-15T18:06:05.413Z,57.70
2022-09-15T18:08:33.247Z,58.00
2022-09-15T18:11:01.480Z,58.10
2022-09-15T18:13:32.125Z,58.10
2022-09-15T18:16:04.980Z,58.40
2022-09-15T18:18:31.899Z,58.10
2022-09-15T18:20:58.931Z,58.40
2022-09-15T18:23:29.582Z,58.40
2022-09-15T18:25:56.682Z,58.20
2022-09-15T18:28:23.466Z,58.80
2022-09-15T18:30:50.659Z,59.00
2022-09-15T18:33:23.531Z,59.10
2022-09-15T18:35:52.932Z,58.90
2022-09-15T18:38:19.814Z,59.40
2022-09-15T18:40:53.220Z,59.00
2022-09-15T18:43:20.566Z,59.10
2022-09-15T18:45:48.335Z,58.60
2022-09-15T18:48:15.581Z,59.10
2022-09-15T18:50:45.808Z,59.70
2022-09-15T18:53:13.043Z,59.40
2022-09-15T18:55:43.755Z,59.60
2022-09-15T18:58:11.916Z,59.60
2022-09-15T19:00:38.753Z,59.80
2022-09-15T19:03:09.634Z,60.00
2022-09-15T19:05:37.106Z,60.30
2022-09-15T19:08:04.563Z,60.10
2022-09-15T19:10:31.363Z,60.40
2022-09-15T19:12:58.155Z,60.50
2022-09-15T19:15:24.882Z,60.60
2022-09-15T19:17:51.874Z,60.90
2022-09-15T19:20:19.086Z,60.80
2022-09-15T19:22:46.358Z,61.00
2022-09-15T19:25:13.641Z,61.40
2022-09-15T19:27:41.299Z,61.30
2022-09-15T19:30:12.391Z,62.00
2022-09-15T19:32:40.410Z,61.70
2022-09-15T19:35:08.239Z,61.90
2022-09-15T19:37:41.642Z,62.10
2022-09-15T19:40:12.097Z,62.00
2022-09-15T19:42:39.896Z,62.60
2022-09-15T19:45:07.811Z,62.60
2022-09-15T19:47:35.378Z,62.60
2022-09-15T19:50:03.218Z,62.90
2022-09-15T19:52:30.114Z,63.30
2022-09-15T19:54:56.929Z,63.10
2022-09-15T19:57:24.398Z,63.30
2022-09-15T19:59:51.169Z,63.40
2022-09-15T20:02:18.087Z,63.80
2022-09-15T20:07:29.157Z,64.10
2022-09-15T20:09:55.891Z,64.10
2022-09-15T20:12:22.643Z,64.60
2022-09-15T20:14:49.299Z,64.90
2022-09-15T20:17:16.157Z,64.90
2022-09-15T20:19:43.193Z,65.00
2022-09-15T20:22:09.998Z,65.10
2022-09-15T20:24:36.712Z,65.10
2022-09-15T20:27:03.545Z,65.30
2022-09-15T20:29:30.354Z,65.30
2022-09-15T20:31:57.317Z,65.60
2022-09-15T20:34:24.062Z,65.50
2022-09-15T20:36:50.907Z,65.50
2022-09-15T20:39:22.083Z,65.60
2022-09-15T20:41:48.959Z,65.40
2022-09-15T20:44:15.844Z,66.20
2022-09-15T20:46:43.159Z,66.20
2022-09-15T20:49:11.358Z,66.20
2022-09-15T20:51:38.230Z,66.50
2022-09-15T20:54:08.238Z,66.80
2022-09-15T20:56:36.274Z,66.70
2022-09-15T20:59:04.491Z,66.70
2022-09-15T21:01:36.790Z,66.60
2022-09-15T21:04:05.432Z,66.50
2022-09-15T21:06:32.487Z,66.80
2022-09-15T21:08:59.502Z,67.10
2022-09-15T21:11:28.735Z,67.10
2022-09-15T21:13:57.183Z,67.20
2022-09-15T21:16:26.912Z,67.60
2022-09-15T21:18:54.076Z,67.40
2022-09-15T21:21:26.305Z,67.10
2022-09-15T21:23:55.286Z,67.20
2022-09-15T21:26:25.152Z,67.00
2022-09-15T21:28:52.130Z,67.00
2022-09-15T21:31:21.382Z,67.20
2022-09-15T21:33:49.502Z,67.30
2022-09-15T21:36:23.176Z,67.30
2022-09-15T21:38:51.752Z,68.60
2022-09-15T21:41:21.517Z,67.30
2022-09-15T21:43:49.194Z,68.60
2022-09-15T21:46:18.338Z,69.00
2022-09-15T21:48:47.405Z,68.70
2022-09-15T21:51:22.060Z,69.00
2022-09-15T21:53:53.358Z,69.10
2022-09-15T21:56:20.829Z,69.10
2022-09-15T21:58:47.577Z,69.40
2022-09-15T22:01:29.258Z,69.30
2022-09-15T22:04:01.617Z,68.70
2022-09-15T22:06:31.861Z,69.10
2022-09-15T22:09:00.657Z,69.70
2022-09-15T22:11:27.680Z,69.50
2022-09-15T22:13:54.685Z,69.50
2022-09-15T22:16:23.503Z,69.60
2022-09-15T22:18:51.295Z,69.30
2022-09-15T22:21:24.487Z,69.30
2022-09-15T22:23:53.539Z,69.20
2022-09-15T22:26:27.607Z,69.60
2022-09-15T22:28:54.666Z,69.90
2022-09-15T22:31:22.837Z,69.50
2022-09-15T22:33:49.899Z,69.90
2022-09-15T22:36:26.452Z,70.00
2022-09-15T22:38:56.380Z,69.80
2022-09-15T22:41:25.863Z,70.00
2022-09-15T22:43:52.866Z,69.90
2022-09-15T22:46:20.090Z,69.80
2022-09-15T22:48:47.004Z,70.00
2022-09-15T22:51:14.874Z,70.30
2022-09-15T22:53:41.877Z,70.10
2022-09-15T22:56:14.689Z,70.70
2022-09-15T22:58:43.962Z,70.10
2022-09-15T23:01:13.793Z,70.30
2022-09-15T23:03:41.328Z,70.40
2022-09-15T23:06:08.543Z,70.50
2022-09-15T23:08:36.427Z,70.20
2022-09-15T23:11:14.293Z,70.30
2022-09-15T23:13:41.694Z,70.20
2022-09-15T23:16:08.953Z,70.50
2022-09-15T23:18:36.598Z,70.40
2022-09-15T23:21:09.361Z,70.50
2022-09-15T23:23:40.708Z,70.50
2022-09-15T23:26:10.219Z,70.40
2022-09-15T23:28:39.106Z,70.70
2022-09-15T23:31:06.945Z,70.60
2022-09-15T23:33:34.880Z,70.40
2022-09-15T23:36:03.125Z,70.60
2022-09-15T23:38:30.474Z,70.30
2022-09-15T23:40:57.739Z,70.70
2022-09-15T23:43:24.554Z,70.60
2022-09-15T23:45:51.457Z,70.60
2022-09-15T23:48:18.557Z,71.00
2022-09-15T23:50:45.977Z,70.80
2022-09-15T23:53:13.540Z,71.00
2022-09-15T23:55:40.317Z,71.10
2022-09-15T23:58:07.216Z,71.40
